sensor_id;sensor_type;location;lat;lon;timestamp;P1;durP1;ratioP1;P2;durP2;ratioP2
29330;SDS011;16331;52.528;13.342;2023-04-21T00:01:53;13.20;;;5.95;;
29330;SDS011;16331;52.528;13.342;2023-04-21T00:04:19;16.70;;;5.70;;
29330;SDS011;16331;52.528;13.342;2023-04-21T00:06:45;15.65;;;5.72;;
29330;SDS011;16331;52.528;13.342;2023-04-21T00:09:12;15.48;;;5.15;;
29330;SDS011;16331;52.528;13.342;2023-04-21T00:11:39;15.88;;;5.28;;
29330;SDS011;16331;52.528;13.342;2023-04-21T00:14:05;13.30;;;5.20;;
29330;SDS011;16331;52.528;13.342;2023-04-21T00:16:33;14.18;;;5.70;;
29330;SDS011;16331;52.528;13.342;2023-04-21T00:19:00;23.55;;;6.25;;
29330;SDS011;16331;52.528;13.342;2023-04-21T00:21:31;13.43;;;5.90;;
29330;SDS011;16331;52.528;13.342;2023-04-21T00:23:59;21.17;;;6.20;;
29330;SDS011;16331;52.528;13.342;2023-04-21T00:26:25;12.68;;;6.15;;
29330;SDS011;16331;52.528;13.342;2023-04-21T00:28:51;15.38;;;5.85;;
29330;SDS011;16331;52.528;13.342;2023-04-21T00:31:17;16.45;;;5.55;;
29330;SDS011;16331;52.528;13.342;2023-04-21T00:33:43;14.30;;;5.95;;
29330;SDS011;16331;52.528;13.342;2023-04-21T00:36:09;14.30;;;5.57;;
29330;SDS011;16331;52.528;13.342;2023-04-21T00:38:36;12.75;;;5.63;;
29330;SDS011;16331;52.528;13.342;2023-04-21T00:41:02;11.23;;;6.18;;
29330;SDS011;16331;52.528;13.342;2023-04-21T00:43:28;12.55;;;5.68;;
29330;SDS011;16331;52.528;13.342;2023-04-21T00:45:54;17.83;;;6.57;;
29330;SDS011;16331;52.528;13.342;2023-04-21T00:48:21;16.58;;;6.13;;
29330;SDS011;16331;52.528;13.342;2023-04-21T00:50:47;15.02;;;6.90;;
29330;SDS011;16331;52.528;13.342;2023-04-21T00:53:13;16.40;;;7.30;;
29330;SDS011;16331;52.528;13.342;2023-04-21T00:55:40;17.10;;;6.07;;
29330;SDS011;16331;52.528;13.342;2023-04-21T00:58:06;15.55;;;5.85;;
29330;SDS011;16331;52.528;13.342;2023-04-21T01:00:33;20.58;;;7.93;;
29330;SDS011;16331;52.528;13.342;2023-04-21T01:03:00;23.33;;;6.15;;
29330;SDS011;16331;52.528;13.342;2023-04-21T01:05:26;17.00;;;6.30;;
29330;SDS011;16331;52.528;13.342;2023-04-21T01:07:52;14.02;;;6.03;;
29330;SDS011;16331;52.528;13.342;2023-04-21T01:10:20;15.43;;;6.65;;
29330;SDS011;16331;52.528;13.342;2023-04-21T01:12:46;14.15;;;6.43;;
29330;SDS011;16331;52.528;13.342;2023-04-21T01:15:15;14.13;;;6.28;;
29330;SDS011;16331;52.528;13.342;2023-04-21T01:17:42;17.45;;;6.38;;
29330;SDS011;16331;52.528;13.342;2023-04-21T01:20:10;12.25;;;6.75;;
29330;SDS011;16331;52.528;13.342;2023-04-21T01:22:37;17.92;;;6.88;;
29330;SDS011;16331;52.528;13.342;2023-04-21T01:25:10;15.95;;;7.47;;
29330;SDS011;16331;52.528;13.342;2023-04-21T01:27:37;14.55;;;7.28;;
29330;SDS011;16331;52.528;13.342;2023-04-21T01:30:05;16.83;;;7.15;;
29330;SDS011;16331;52.528;13.342;2023-04-21T01:32:32;27.95;;;7.90;;
29330;SDS011;16331;52.528;13.342;2023-04-21T01:34:58;16.45;;;6.47;;
29330;SDS011;16331;52.528;13.342;2023-04-21T01:37:26;20.05;;;7.70;;
29330;SDS011;16331;52.528;13.342;2023-04-21T01:39:55;18.48;;;8.15;;
29330;SDS011;16331;52.528;13.342;2023-04-21T01:42:25;13.60;;;7.65;;
29330;SDS011;16331;52.528;13.342;2023-04-21T01:44:52;22.08;;;8.02;;
29330;SDS011;16331;52.528;13.342;2023-04-21T01:47:24;15.45;;;8.07;;
29330;SDS011;16331;52.528;13.342;2023-04-21T01:49:51;19.55;;;8.23;;
29330;SDS011;16331;52.528;13.342;2023-04-21T01:52:17;17.27;;;7.85;;
29330;SDS011;16331;52.528;13.342;2023-04-21T01:54:44;13.57;;;7.63;;
29330;SDS011;16331;52.528;13.342;2023-04-21T01:57:10;16.73;;;8.20;;
29330;SDS011;16331;52.528;13.342;2023-04-21T01:59:38;16.30;;;8.07;;
29330;SDS011;16331;52.528;13.342;2023-04-21T02:02:04;20.20;;;10.05;;
29330;SDS011;16331;52.528;13.342;2023-04-21T02:04:30;15.38;;;9.13;;
29330;SDS011;16331;52.528;13.342;2023-04-21T02:06:56;16.55;;;7.30;;
29330;SDS011;16331;52.528;13.342;2023-04-21T02:09:22;21.88;;;7.80;;
29330;SDS011;16331;52.528;13.342;2023-04-21T02:11:49;16.80;;;8.63;;
29330;SDS011;16331;52.528;13.342;2023-04-21T02:14:15;21.45;;;8.45;;
29330;SDS011;16331;52.528;13.342;2023-04-21T02:16:42;15.18;;;8.27;;
29330;SDS011;16331;52.528;13.342;2023-04-21T02:19:08;16.45;;;8.13;;
29330;SDS011;16331;52.528;13.342;2023-04-21T02:21:35;25.08;;;9.05;;
29330;SDS011;16331;52.528;13.342;2023-04-21T02:24:02;21.95;;;8.13;;
29330;SDS011;16331;52.528;13.342;2023-04-21T02:26:28;14.00;;;7.57;;
29330;SDS011;16331;52.528;13.342;2023-04-21T02:28:54;18.83;;;8.95;;
29330;SDS011;16331;52.528;13.342;2023-04-21T02:31:20;18.42;;;8.57;;
29330;SDS011;16331;52.528;13.342;2023-04-21T02:33:46;26.08;;;9.63;;
29330;SDS011;16331;52.528;13.342;2023-04-21T02:36:13;20.02;;;9.25;;
29330;SDS011;16331;52.528;13.342;2023-04-21T02:38:39;21.27;;;10.30;;
29330;SDS011;16331;52.528;13.342;2023-04-21T02:41:05;21.63;;;10.50;;
29330;SDS011;16331;52.528;13.342;2023-04-21T02:43:32;21.83;;;11.18;;
29330;SDS011;16331;52.528;13.342;2023-04-21T02:46:04;23.25;;;12.68;;
29330;SDS011;16331;52.528;13.342;2023-04-21T02:48:33;27.42;;;13.50;;
29330;SDS011;16331;52.528;13.342;2023-04-21T02:51:00;33.72;;;15.40;;
29330;SDS011;16331;52.528;13.342;2023-04-21T02:53:26;31.65;;;16.10;;
29330;SDS011;16331;52.528;13.342;2023-04-21T02:55:52;27.88;;;15.40;;
29330;SDS011;16331;52.528;13.342;2023-04-21T02:58:22;29.75;;;15.20;;
29330;SDS011;16331;52.528;13.342;2023-04-21T03:00:49;28.52;;;14.88;;
29330;SDS011;16331;52.528;13.342;2023-04-21T03:03:15;26.88;;;11.98;;
29330;SDS011;16331;52.528;13.342;2023-04-21T03:05:41;23.58;;;12.00;;
29330;SDS011;16331;52.528;13.342;2023-04-21T03:08:07;17.25;;;9.45;;
29330;SDS011;16331;52.528;13.342;2023-04-21T03:10:37;22.52;;;9.20;;
29330;SDS011;16331;52.528;13.342;2023-04-21T03:13:03;15.93;;;9.15;;
29330;SDS011;16331;52.528;13.342;2023-04-21T03:15:31;15.57;;;8.18;;
29330;SDS011;16331;52.528;13.342;2023-04-21T03:17:57;17.30;;;8.23;;
29330;SDS011;16331;52.528;13.342;2023-04-21T03:20:24;25.30;;;10.43;;
29330;SDS011;16331;52.528;13.342;2023-04-21T03:22:51;22.85;;;8.52;;
29330;SDS011;16331;52.528;13.342;2023-04-21T03:25:18;18.08;;;8.02;;
29330;SDS011;16331;52.528;13.342;2023-04-21T03:27:44;17.00;;;8.95;;
29330;SDS011;16331;52.528;13.342;2023-04-21T03:30:11;18.38;;;8.85;;
29330;SDS011;16331;52.528;13.342;2023-04-21T03:32:42;15.32;;;8.65;;
29330;SDS011;16331;52.528;13.342;2023-04-21T03:35:10;19.70;;;8.85;;
29330;SDS011;16331;52.528;13.342;2023-04-21T03:37:38;18.50;;;9.27;;
29330;SDS011;16331;52.528;13.342;2023-04-21T03:40:07;20.05;;;9.13;;
29330;SDS011;16331;52.528;13.342;2023-04-21T03:42:34;16.35;;;9.70;;
29330;SDS011;16331;52.528;13.342;2023-04-21T03:45:01;16.67;;;9.23;;
29330;SDS011;16331;52.528;13.342;2023-04-21T03:47:27;15.73;;;8.18;;
29330;SDS011;16331;52.528;13.342;2023-04-21T03:49:56;19.75;;;8.95;;
29330;SDS011;16331;52.528;13.342;2023-04-21T03:52:23;19.77;;;8.52;;
29330;SDS011;16331;52.528;13.342;2023-04-21T03:54:49;17.23;;;8.63;;
29330;SDS011;16331;52.528;13.342;2023-04-21T03:57:17;27.48;;;8.98;;
29330;SDS011;16331;52.528;13.342;2023-04-21T03:59:45;18.27;;;8.98;;
29330;SDS011;16331;52.528;13.342;2023-04-21T04:02:12;21.80;;;11.73;;
29330;SDS011;16331;52.528;13.342;2023-04-21T04:04:39;18.33;;;9.45;;
29330;SDS011;16331;52.528;13.342;2023-04-21T04:07:08;20.45;;;9.40;;
29330;SDS011;16331;52.528;13.342;2023-04-21T04:09:35;19.48;;;9.15;;
29330;SDS011;16331;52.528;13.342;2023-04-21T04:12:01;21.13;;;9.27;;
29330;SDS011;16331;52.528;13.342;2023-04-21T04:14:27;17.73;;;9.07;;
29330;SDS011;16331;52.528;13.342;2023-04-21T04:16:54;19.77;;;9.05;;
29330;SDS011;16331;52.528;13.342;2023-04-21T04:19:21;17.15;;;9.57;;
29330;SDS011;16331;52.528;13.342;2023-04-21T04:21:47;19.75;;;9.25;;
29330;SDS011;16331;52.528;13.342;2023-04-21T04:24:13;17.90;;;9.68;;
29330;SDS011;16331;52.528;13.342;2023-04-21T04:26:39;19.50;;;9.43;;
29330;SDS011;16331;52.528;13.342;2023-04-21T04:29:05;18.17;;;9.57;;
29330;SDS011;16331;52.528;13.342;2023-04-21T04:31:34;17.33;;;9.05;;
29330;SDS011;16331;52.528;13.342;2023-04-21T04:34:00;20.13;;;8.98;;
29330;SDS011;16331;52.528;13.342;2023-04-21T04:36:27;21.48;;;9.93;;
29330;SDS011;16331;52.528;13.342;2023-04-21T04:38:56;18.38;;;9.25;;
29330;SDS011;16331;52.528;13.342;2023-04-21T04:41:23;19.27;;;9.95;;
29330;SDS011;16331;52.528;13.342;2023-04-21T04:43:49;19.77;;;9.50;;
29330;SDS011;16331;52.528;13.342;2023-04-21T04:46:16;15.50;;;8.40;;
29330;SDS011;16331;52.528;13.342;2023-04-21T04:48:44;14.88;;;8.85;;
29330;SDS011;16331;52.528;13.342;2023-04-21T04:51:10;23.65;;;9.32;;
29330;SDS011;16331;52.528;13.342;2023-04-21T04:53:36;17.45;;;9.55;;
29330;SDS011;16331;52.528;13.342;2023-04-21T04:56:02;20.55;;;9.35;;
29330;SDS011;16331;52.528;13.342;2023-04-21T04:58:30;19.45;;;9.32;;
29330;SDS011;16331;52.528;13.342;2023-04-21T05:01:09;21.13;;;10.25;;
29330;SDS011;16331;52.528;13.342;2023-04-21T05:03:38;21.73;;;9.68;;
29330;SDS011;16331;52.528;13.342;2023-04-21T05:06:04;16.52;;;9.23;;
29330;SDS011;16331;52.528;13.342;2023-04-21T05:08:31;18.00;;;9.25;;
29330;SDS011;16331;52.528;13.342;2023-04-21T05:10:57;18.17;;;9.20;;
29330;SDS011;16331;52.528;13.342;2023-04-21T05:13:23;20.25;;;9.63;;
29330;SDS011;16331;52.528;13.342;2023-04-21T05:15:57;22.60;;;9.98;;
29330;SDS011;16331;52.528;13.342;2023-04-21T05:18:28;18.63;;;9.70;;
29330;SDS011;16331;52.528;13.342;2023-04-21T05:20:56;21.65;;;9.90;;
29330;SDS011;16331;52.528;13.342;2023-04-21T05:23:22;23.88;;;9.52;;
29330;SDS011;16331;52.528;13.342;2023-04-21T05:25:49;23.15;;;9.63;;
29330;SDS011;16331;52.528;13.342;2023-04-21T05:28:18;19.40;;;9.77;;
29330;SDS011;16331;52.528;13.342;2023-04-21T05:30:48;16.90;;;9.57;;
29330;SDS011;16331;52.528;13.342;2023-04-21T05:33:16;18.83;;;8.90;;
29330;SDS011;16331;52.528;13.342;2023-04-21T05:35:45;16.27;;;8.82;;
29330;SDS011;16331;52.528;13.342;2023-04-21T05:38:12;16.52;;;9.40;;
29330;SDS011;16331;52.528;13.342;2023-04-21T05:40:39;22.90;;;9.43;;
29330;SDS011;16331;52.528;13.342;2023-04-21T05:43:11;17.25;;;9.57;;
29330;SDS011;16331;52.528;13.342;2023-04-21T05:45:38;16.60;;;9.48;;
29330;SDS011;16331;52.528;13.342;2023-04-21T05:48:05;19.95;;;9.85;;
29330;SDS011;16331;52.528;13.342;2023-04-21T05:50:31;19.17;;;9.60;;
29330;SDS011;16331;52.528;13.342;2023-04-21T05:52:59;16.20;;;9.20;;
29330;SDS011;16331;52.528;13.342;2023-04-21T05:55:27;16.38;;;9.48;;
29330;SDS011;16331;52.528;13.342;2023-04-21T05:57:54;21.50;;;9.82;;
29330;SDS011;16331;52.528;13.342;2023-04-21T06:00:20;17.77;;;8.93;;
29330;SDS011;16331;52.528;13.342;2023-04-21T06:02:47;18.83;;;9.18;;
29330;SDS011;16331;52.528;13.342;2023-04-21T06:05:13;17.80;;;10.13;;
29330;SDS011;16331;52.528;13.342;2023-04-21T06:07:41;21.80;;;9.57;;
29330;SDS011;16331;52.528;13.342;2023-04-21T06:10:09;16.10;;;9.27;;
29330;SDS011;16331;52.528;13.342;2023-04-21T06:12:37;15.68;;;8.90;;
29330;SDS011;16331;52.528;13.342;2023-04-21T06:15:08;18.73;;;9.63;;
29330;SDS011;16331;52.528;13.342;2023-04-21T06:17:35;18.73;;;8.63;;
29330;SDS011;16331;52.528;13.342;2023-04-21T06:20:01;15.27;;;9.38;;
29330;SDS011;16331;52.528;13.342;2023-04-21T06:22:29;19.58;;;9.68;;
29330;SDS011;16331;52.528;13.342;2023-04-21T06:24:57;18.85;;;9.85;;
29330;SDS011;16331;52.528;13.342;2023-04-21T06:27:23;22.02;;;9.75;;
29330;SDS011;16331;52.528;13.342;2023-04-21T06:29:53;20.40;;;9.85;;
29330;SDS011;16331;52.528;13.342;2023-04-21T06:32:22;21.02;;;9.32;;
29330;SDS011;16331;52.528;13.342;2023-04-21T06:34:48;25.15;;;9.48;;
29330;SDS011;16331;52.528;13.342;2023-04-21T06:37:14;12.90;;;8.20;;
29330;SDS011;16331;52.528;13.342;2023-04-21T06:39:40;17.27;;;9.80;;
29330;SDS011;16331;52.528;13.342;2023-04-21T06:42:06;18.98;;;9.18;;
29330;SDS011;16331;52.528;13.342;2023-04-21T06:44:32;19.38;;;9.98;;
29330;SDS011;16331;52.528;13.342;2023-04-21T06:46:58;18.63;;;8.55;;
29330;SDS011;16331;52.528;13.342;2023-04-21T06:49:26;23.55;;;9.70;;
29330;SDS011;16331;52.528;13.342;2023-04-21T06:51:52;20.90;;;9.55;;
29330;SDS011;16331;52.528;13.342;2023-04-21T06:54:19;16.60;;;8.80;;
29330;SDS011;16331;52.528;13.342;2023-04-21T06:56:46;19.80;;;8.70;;
29330;SDS011;16331;52.528;13.342;2023-04-21T06:59:16;19.58;;;9.63;;
29330;SDS011;16331;52.528;13.342;2023-04-21T07:01:44;17.33;;;9.07;;
29330;SDS011;16331;52.528;13.342;2023-04-21T07:04:13;19.13;;;9.27;;
29330;SDS011;16331;52.528;13.342;2023-04-21T07:06:41;16.60;;;8.63;;
29330;SDS011;16331;52.528;13.342;2023-04-21T07:09:11;15.77;;;8.82;;
29330;SDS011;16331;52.528;13.342;2023-04-21T07:11:37;17.45;;;9.00;;
29330;SDS011;16331;52.528;13.342;2023-04-21T07:14:03;17.88;;;8.90;;
29330;SDS011;16331;52.528;13.342;2023-04-21T07:16:30;21.35;;;8.60;;
29330;SDS011;16331;52.528;13.342;2023-04-21T07:18:58;18.00;;;9.48;;
29330;SDS011;16331;52.528;13.342;2023-04-21T07:21:24;18.75;;;9.27;;
29330;SDS011;16331;52.528;13.342;2023-04-21T07:23:50;19.83;;;8.85;;
29330;SDS011;16331;52.528;13.342;2023-04-21T07:26:17;19.70;;;11.18;;
29330;SDS011;16331;52.528;13.342;2023-04-21T07:28:44;19.95;;;9.27;;
29330;SDS011;16331;52.528;13.342;2023-04-21T07:31:15;16.63;;;8.65;;
29330;SDS011;16331;52.528;13.342;2023-04-21T07:33:41;14.07;;;8.23;;
29330;SDS011;16331;52.528;13.342;2023-04-21T07:36:08;16.67;;;8.02;;
29330;SDS011;16331;52.528;13.342;2023-04-21T07:38:36;17.42;;;8.55;;
29330;SDS011;16331;52.528;13.342;2023-04-21T07:41:07;20.83;;;10.57;;
29330;SDS011;16331;52.528;13.342;2023-04-21T07:43:37;18.45;;;8.90;;
29330;SDS011;16331;52.528;13.342;2023-04-21T07:46:04;19.13;;;8.98;;
29330;SDS011;16331;52.528;13.342;2023-04-21T07:48:31;22.75;;;9.82;;
29330;SDS011;16331;52.528;13.342;2023-04-21T07:50:58;14.07;;;7.95;;
29330;SDS011;16331;52.528;13.342;2023-04-21T07:53:26;17.00;;;9.30;;
29330;SDS011;16331;52.528;13.342;2023-04-21T07:55:54;17.60;;;9.73;;
29330;SDS011;16331;52.528;13.342;2023-04-21T07:58:21;15.65;;;8.52;;
29330;SDS011;16331;52.528;13.342;2023-04-21T08:00:47;16.88;;;8.38;;
29330;SDS011;16331;52.528;13.342;2023-04-21T08:03:15;15.68;;;8.25;;
29330;SDS011;16331;52.528;13.342;2023-04-21T08:05:41;14.05;;;8.27;;
29330;SDS011;16331;52.528;13.342;2023-04-21T08:08:09;16.60;;;8.40;;
29330;SDS011;16331;52.528;13.342;2023-04-21T08:10:35;13.95;;;8.10;;
29330;SDS011;16331;52.528;13.342;2023-04-21T08:13:01;16.45;;;8.35;;
29330;SDS011;16331;52.528;13.342;2023-04-21T08:15:33;17.95;;;9.48;;
29330;SDS011;16331;52.528;13.342;2023-04-21T08:18:01;16.45;;;7.90;;
29330;SDS011;16331;52.528;13.342;2023-04-21T08:20:30;15.63;;;8.60;;
29330;SDS011;16331;52.528;13.342;2023-04-21T08:22:57;19.10;;;8.77;;
29330;SDS011;16331;52.528;13.342;2023-04-21T08:25:23;14.45;;;8.75;;
29330;SDS011;16331;52.528;13.342;2023-04-21T08:27:52;19.58;;;9.25;;
29330;SDS011;16331;52.528;13.342;2023-04-21T08:30:21;14.98;;;8.00;;
29330;SDS011;16331;52.528;13.342;2023-04-21T08:32:47;13.85;;;7.93;;
29330;SDS011;16331;52.528;13.342;2023-04-21T08:35:17;15.63;;;8.18;;
29330;SDS011;16331;52.528;13.342;2023-04-21T08:37:44;22.38;;;9.15;;
29330;SDS011;16331;52.528;13.342;2023-04-21T08:40:11;15.07;;;8.18;;
29330;SDS011;16331;52.528;13.342;2023-04-21T08:42:41;12.52;;;7.60;;
29330;SDS011;16331;52.528;13.342;2023-04-21T08:45:10;14.30;;;7.32;;
29330;SDS011;16331;52.528;13.342;2023-04-21T08:47:37;19.63;;;7.32;;
29330;SDS011;16331;52.528;13.342;2023-04-21T08:50:11;12.47;;;8.07;;
29330;SDS011;16331;52.528;13.342;2023-04-21T08:52:41;13.20;;;7.68;;
29330;SDS011;16331;52.528;13.342;2023-04-21T08:55:10;17.25;;;7.82;;
29330;SDS011;16331;52.528;13.342;2023-04-21T08:57:43;14.15;;;7.47;;
29330;SDS011;16331;52.528;13.342;2023-04-21T09:00:11;13.88;;;7.20;;
29330;SDS011;16331;52.528;13.342;2023-04-21T09:02:56;18.02;;;7.22;;
29330;SDS011;16331;52.528;13.342;2023-04-21T09:05:31;17.40;;;8.60;;
29330;SDS011;16331;52.528;13.342;2023-04-21T09:08:08;21.98;;;6.80;;
29330;SDS011;16331;52.528;13.342;2023-04-21T09:10:41;14.32;;;7.32;;
29330;SDS011;16331;52.528;13.342;2023-04-21T09:13:16;13.05;;;6.78;;
29330;SDS011;16331;52.528;13.342;2023-04-21T09:15:45;13.38;;;7.22;;
29330;SDS011;16331;52.528;13.342;2023-04-21T09:18:18;17.90;;;6.88;;
29330;SDS011;16331;52.528;13.342;2023-04-21T09:20:46;19.35;;;9.23;;
29330;SDS011;16331;52.528;13.342;2023-04-21T09:24:11;12.85;;;6.75;;
29330;SDS011;16331;52.528;13.342;2023-04-21T09:26:21;15.30;;;8.35;;
29330;SDS011;16331;52.528;13.342;2023-04-21T09:28:49;21.02;;;7.43;;
29330;SDS011;16331;52.528;13.342;2023-04-21T09:31:21;17.45;;;7.85;;
29330;SDS011;16331;52.528;13.342;2023-04-21T09:33:55;11.25;;;6.88;;
29330;SDS011;16331;52.528;13.342;2023-04-21T09:36:23;12.73;;;7.40;;
29330;SDS011;16331;52.528;13.342;2023-04-21T09:41:22;11.45;;;6.40;;
29330;SDS011;16331;52.528;13.342;2023-04-21T09:43:49;13.95;;;7.70;;
29330;SDS011;16331;52.528;13.342;2023-04-21T09:46:16;10.23;;;7.10;;
29330;SDS011;16331;52.528;13.342;2023-04-21T09:48:44;15.65;;;7.45;;
29330;SDS011;16331;52.528;13.342;2023-04-21T09:51:13;14.23;;;7.18;;
29330;SDS011;16331;52.528;13.342;2023-04-21T09:53:41;11.82;;;6.78;;
29330;SDS011;16331;52.528;13.342;2023-04-21T09:56:10;14.23;;;7.38;;
29330;SDS011;16331;52.528;13.342;2023-04-21T09:58:50;10.35;;;6.00;;
29330;SDS011;16331;52.528;13.342;2023-04-21T10:01:18;15.63;;;7.80;;
29330;SDS011;16331;52.528;13.342;2023-04-21T10:03:46;13.73;;;6.32;;
29330;SDS011;16331;52.528;13.342;2023-04-21T10:06:14;13.43;;;6.28;;
29330;SDS011;16331;52.528;13.342;2023-04-21T10:08:40;10.10;;;6.43;;
29330;SDS011;16331;52.528;13.342;2023-04-21T10:11:08;11.00;;;6.47;;
29330;SDS011;16331;52.528;13.342;2023-04-21T10:13:36;10.35;;;5.85;;
29330;SDS011;16331;52.528;13.342;2023-04-21T10:16:08;14.65;;;6.22;;
29330;SDS011;16331;52.528;13.342;2023-04-21T10:18:35;13.20;;;6.60;;
29330;SDS011;16331;52.528;13.342;2023-04-21T10:21:06;11.90;;;6.13;;
29330;SDS011;16331;52.528;13.342;2023-04-21T10:28:53;19.08;;;6.65;;
29330;SDS011;16331;52.528;13.342;2023-04-21T10:39:30;8.88;;;5.72;;
29330;SDS011;16331;52.528;13.342;2023-04-21T10:42:32;12.27;;;5.57;;
29330;SDS011;16331;52.528;13.342;2023-04-21T10:45:08;14.90;;;6.00;;
29330;SDS011;16331;52.528;13.342;2023-04-21T10:50:22;9.07;;;5.03;;
29330;SDS011;16331;52.528;13.342;2023-04-21T10:52:56;10.82;;;6.15;;
29330;SDS011;16331;52.528;13.342;2023-04-21T10:55:27;8.85;;;5.80;;
29330;SDS011;16331;52.528;13.342;2023-04-21T10:57:54;12.27;;;5.03;;
29330;SDS011;16331;52.528;13.342;2023-04-21T11:00:23;12.23;;;6.25;;
29330;SDS011;16331;52.528;13.342;2023-04-21T11:02:57;10.73;;;5.70;;
29330;SDS011;16331;52.528;13.342;2023-04-21T11:05:34;11.02;;;5.50;;
29330;SDS011;16331;52.528;13.342;2023-04-21T11:08:03;16.67;;;6.22;;
29330;SDS011;16331;52.528;13.342;2023-04-21T11:10:53;12.25;;;5.50;;
29330;SDS011;16331;52.528;13.342;2023-04-21T11:13:21;12.50;;;5.15;;
29330;SDS011;16331;52.528;13.342;2023-04-21T11:15:56;10.15;;;5.55;;
29330;SDS011;16331;52.528;13.342;2023-04-21T11:18:32;10.93;;;5.03;;
29330;SDS011;16331;52.528;13.342;2023-04-21T11:21:07;12.40;;;6.15;;
29330;SDS011;16331;52.528;13.342;2023-04-21T11:23:34;8.43;;;4.72;;
29330;SDS011;16331;52.528;13.342;2023-04-21T11:26:05;9.25;;;4.78;;
29330;SDS011;16331;52.528;13.342;2023-04-21T11:28:31;10.88;;;5.22;;
29330;SDS011;16331;52.528;13.342;2023-04-21T11:30:57;12.57;;;5.05;;
29330;SDS011;16331;52.528;13.342;2023-04-21T11:33:29;7.70;;;4.68;;
29330;SDS011;16331;52.528;13.342;2023-04-21T11:36:07;11.18;;;5.03;;
29330;SDS011;16331;52.528;13.342;2023-04-21T11:38:39;11.77;;;4.47;;
29330;SDS011;16331;52.528;13.342;2023-04-21T11:41:08;8.82;;;4.63;;
29330;SDS011;16331;52.528;13.342;2023-04-21T11:43:46;9.07;;;4.88;;
29330;SDS011;16331;52.528;13.342;2023-04-21T11:48:47;12.88;;;5.38;;
29330;SDS011;16331;52.528;13.342;2023-04-21T11:51:41;12.07;;;6.45;;
29330;SDS011;16331;52.528;13.342;2023-04-21T11:54:09;8.23;;;5.20;;
29330;SDS011;16331;52.528;13.342;2023-04-21T11:56:38;8.73;;;5.25;;
29330;SDS011;16331;52.528;13.342;2023-04-21T11:59:12;12.88;;;5.70;;
29330;SDS011;16331;52.528;13.342;2023-04-21T12:01:49;10.75;;;5.40;;
29330;SDS011;16331;52.528;13.342;2023-04-21T12:04:21;9.35;;;5.43;;
29330;SDS011;16331;52.528;13.342;2023-04-21T12:07:00;8.45;;;5.50;;
29330;SDS011;16331;52.528;13.342;2023-04-21T12:09:28;13.02;;;6.82;;
29330;SDS011;16331;52.528;13.342;2023-04-21T12:11:56;9.20;;;5.45;;
29330;SDS011;16331;52.528;13.342;2023-04-21T12:14:23;8.23;;;5.00;;
29330;SDS011;16331;52.528;13.342;2023-04-21T12:16:56;7.90;;;4.75;;
29330;SDS011;16331;52.528;13.342;2023-04-21T12:19:23;7.88;;;5.07;;
29330;SDS011;16331;52.528;13.342;2023-04-21T12:22:11;7.45;;;4.95;;
29330;SDS011;16331;52.528;13.342;2023-04-21T12:24:40;8.27;;;4.72;;
29330;SDS011;16331;52.528;13.342;2023-04-21T12:27:09;8.20;;;5.10;;
29330;SDS011;16331;52.528;13.342;2023-04-21T12:29:36;11.60;;;4.70;;
29330;SDS011;16331;52.528;13.342;2023-04-21T12:32:03;10.60;;;5.13;;
29330;SDS011;16331;52.528;13.342;2023-04-21T12:34:30;8.02;;;5.05;;
29330;SDS011;16331;52.528;13.342;2023-04-21T12:36:57;10.50;;;6.03;;
29330;SDS011;16331;52.528;13.342;2023-04-21T12:39:23;10.18;;;4.80;;
29330;SDS011;16331;52.528;13.342;2023-04-21T12:41:50;7.63;;;4.50;;
29330;SDS011;16331;52.528;13.342;2023-04-21T12:44:16;6.63;;;4.90;;
29330;SDS011;16331;52.528;13.342;2023-04-21T12:46:43;6.22;;;5.43;;
29330;SDS011;16331;52.528;13.342;2023-04-21T12:49:13;7.85;;;5.47;;
29330;SDS011;16331;52.528;13.342;2023-04-21T12:51:40;11.40;;;4.85;;
29330;SDS011;16331;52.528;13.342;2023-04-21T12:54:10;7.43;;;4.53;;
29330;SDS011;16331;52.528;13.342;2023-04-21T12:56:39;6.90;;;4.35;;
29330;SDS011;16331;52.528;13.342;2023-04-21T12:59:07;8.68;;;5.10;;
29330;SDS011;16331;52.528;13.342;2023-04-21T13:01:34;12.38;;;4.78;;
29330;SDS011;16331;52.528;13.342;2023-04-21T13:04:02;8.30;;;4.40;;
29330;SDS011;16331;52.528;13.342;2023-04-21T13:06:31;10.70;;;5.25;;
29330;SDS011;16331;52.528;13.342;2023-04-21T13:08:57;6.82;;;4.53;;
29330;SDS011;16331;52.528;13.342;2023-04-21T13:11:24;12.25;;;4.30;;
29330;SDS011;16331;52.528;13.342;2023-04-21T13:13:50;6.22;;;4.25;;
29330;SDS011;16331;52.528;13.342;2023-04-21T13:16:17;6.93;;;4.20;;
29330;SDS011;16331;52.528;13.342;2023-04-21T13:18:49;9.48;;;4.45;;
29330;SDS011;16331;52.528;13.342;2023-04-21T13:21:15;6.97;;;4.05;;
29330;SDS011;16331;52.528;13.342;2023-04-21T13:23:41;7.88;;;4.65;;
29330;SDS011;16331;52.528;13.342;2023-04-21T13:26:14;6.35;;;4.45;;
29330;SDS011;16331;52.528;13.342;2023-04-21T13:28:43;8.25;;;4.30;;
29330;SDS011;16331;52.528;13.342;2023-04-21T13:31:14;7.28;;;4.50;;
29330;SDS011;16331;52.528;13.342;2023-04-21T13:33:41;10.68;;;3.72;;
29330;SDS011;16331;52.528;13.342;2023-04-21T13:36:09;7.30;;;3.80;;
29330;SDS011;16331;52.528;13.342;2023-04-21T13:38:36;8.98;;;4.68;;
29330;SDS011;16331;52.528;13.342;2023-04-21T13:41:04;6.10;;;3.80;;
29330;SDS011;16331;52.528;13.342;2023-04-21T13:43:31;9.68;;;3.83;;
29330;SDS011;16331;52.528;13.342;2023-04-21T13:46:00;5.70;;;4.30;;
29330;SDS011;16331;52.528;13.342;2023-04-21T13:48:27;7.65;;;4.90;;
29330;SDS011;16331;52.528;13.342;2023-04-21T13:50:56;12.25;;;5.55;;
29330;SDS011;16331;52.528;13.342;2023-04-21T13:53:22;11.00;;;4.75;;
29330;SDS011;16331;52.528;13.342;2023-04-21T13:55:49;6.68;;;4.32;;
29330;SDS011;16331;52.528;13.342;2023-04-21T13:58:16;7.35;;;4.30;;
29330;SDS011;16331;52.528;13.342;2023-04-21T14:00:46;7.50;;;4.40;;
29330;SDS011;16331;52.528;13.342;2023-04-21T14:03:22;11.30;;;6.93;;
29330;SDS011;16331;52.528;13.342;2023-04-21T14:05:50;10.43;;;4.32;;
29330;SDS011;16331;52.528;13.342;2023-04-21T14:08:20;8.13;;;4.60;;
29330;SDS011;16331;52.528;13.342;2023-04-21T14:10:48;5.90;;;4.22;;
29330;SDS011;16331;52.528;13.342;2023-04-21T14:13:16;7.88;;;4.90;;
29330;SDS011;16331;52.528;13.342;2023-04-21T14:15:42;9.02;;;4.85;;
29330;SDS011;16331;52.528;13.342;2023-04-21T14:18:09;7.22;;;4.25;;
29330;SDS011;16331;52.528;13.342;2023-04-21T14:20:37;5.97;;;4.07;;
29330;SDS011;16331;52.528;13.342;2023-04-21T14:23:05;8.25;;;4.30;;
29330;SDS011;16331;52.528;13.342;2023-04-21T14:25:33;10.02;;;6.07;;
29330;SDS011;16331;52.528;13.342;2023-04-21T14:27:59;6.28;;;4.35;;
29330;SDS011;16331;52.528;13.342;2023-04-21T14:30:25;9.73;;;4.70;;
29330;SDS011;16331;52.528;13.342;2023-04-21T14:32:51;9.20;;;4.82;;
29330;SDS011;16331;52.528;13.342;2023-04-21T14:35:18;11.85;;;4.80;;
29330;SDS011;16331;52.528;13.342;2023-04-21T14:37:45;6.55;;;4.25;;
29330;SDS011;16331;52.528;13.342;2023-04-21T14:40:11;10.05;;;4.13;;
29330;SDS011;16331;52.528;13.342;2023-04-21T14:42:37;9.98;;;4.10;;
29330;SDS011;16331;52.528;13.342;2023-04-21T14:45:07;6.05;;;4.30;;
29330;SDS011;16331;52.528;13.342;2023-04-21T14:47:34;8.45;;;4.72;;
29330;SDS011;16331;52.528;13.342;2023-04-21T14:50:03;7.07;;;4.50;;
29330;SDS011;16331;52.528;13.342;2023-04-21T14:52:38;7.15;;;4.00;;